CPX674 Details

Departure: Lynden Pindling International Airport (MYNN)
Arrival: Grand Bahama International Airport (MYGF) at N/A
Route: PEACH BR65V ZFP
Notes:


Current Weather Information
MYNN 230700Z 07003KT 9999 FEW022 25/23 A2999
MYGF 222300Z 27003KT 9999 SCT018 BKN250 28/25 A2999